| time (UTC) | temp F | wind direction | speed MPH | gust MPH | rain 1hr in | rain 24hr in | rain mn in | humidity % | barometer mb |
| 20260506184534 | 61 | 283 | 3.0 | 0.0 | 0.00 | 0.00 | 0.00 | 31 | 1008.2 |
| 20260506183031 | 60 | 283 | 2.0 | 0.0 | 0.00 | 0.00 | 0.00 | 31 | 1008.5 |
| 20260506181534 | 59 | 282 | 3.0 | 0.0 | 0.00 | 0.00 | 0.00 | 31 | 1008.7 |
| 20260506180035 | 59 | 357 | 3.0 | 0.0 | 0.00 | 0.00 | 0.00 | 31 | 1008.7 |
| 20260506174529 | 59 | 212 | 2.0 | 0.0 | 0.00 | 0.00 | 0.00 | 32 | 1008.8 |
| 20260506173024 | 58 | 168 | 2.0 | 0.0 | 0.00 | 0.00 | 0.00 | 36 | 1009.4 |
| 20260506171537 | 57 | 169 | 1.0 | 0.0 | 0.00 | 0.00 | 0.00 | 34 | 1009.5 |
| 20260506170020 | 56 | 181 | 1.0 | 0.0 | 0.00 | 0.00 | 0.00 | 37 | 1009.7 |
| 20260506164521 | 55 | 175 | 1.0 | 0.0 | 0.00 | 0.00 | 0.00 | 39 | 1010.1 |
| 20260506163021 | 54 | 163 | 1.0 | 0.0 | 0.00 | 0.00 | 0.00 | 38 | 1010.1 |
| 20260506161521 | 53 | 163 | 1.0 | 0.0 | 0.00 | 0.00 | 0.00 | 39 | 1010.1 |
| 20260506160015 | 53 | 163 | 1.0 | 0.0 | 0.00 | 0.00 | 0.00 | 39 | 1010.1 |
| 20260506154510 | 52 | 163 | 0.0 | 0.0 | 0.00 | 0.00 | 0.00 | 42 | 1010.5 |
| 20260506153010 | 49 | 163 | 0.0 | 0.0 | 0.00 | 0.00 | 0.00 | 45 | 1010.8 |
| 20260506151507 | 48 | 163 | 0.0 | 0.0 | 0.00 | 0.00 | 0.00 | 48 | 1011.0 |
| 20260506150008 | 47 | 163 | 0.0 | 0.0 | 0.00 | 0.00 | 0.00 | 50 | 1010.8 |
| 20260506144505 | 46 | 163 | 1.0 | 0.0 | 0.00 | 0.00 | 0.00 | 50 | 1011.2 |
| 20260506143008 | 46 | 51 | 0.0 | 0.0 | 0.00 | 0.00 | 0.00 | 49 | 1011.3 |
| 20260506141501 | 45 | 49 | 0.0 | 0.0 | 0.00 | 0.00 | 0.00 | 51 | 1011.3 |
| 20260506140100 | 44 | 82 | 1.0 | 0.0 | 0.00 | 0.00 | 0.00 | 54 | 1010.9 |
| 20260506134617 | 43 | 82 | 1.0 | 0.0 | 0.00 | 0.00 | 0.00 | 54 | 1010.9 |
| 20260506133049 | 43 | 82 | 1.0 | 0.0 | 0.00 | 0.00 | 0.00 | 53 | 1010.9 |
| 20260506131604 | 42 | 77 | 2.0 | 0.0 | 0.00 | 0.00 | 0.00 | 55 | 1010.7 |
| 20260506130044 | 42 | 77 | 1.0 | 0.0 | 0.00 | 0.00 | 0.00 | 52 | 1010.5 |
| 20260506124541 | 43 | 82 | 3.0 | 0.0 | 0.00 | 0.00 | 0.00 | 52 | 1010.4 |
| 20260506123045 | 43 | 88 | 3.0 | 0.0 | 0.00 | 0.00 | 0.00 | 51 | 1010.3 |
| 20260506121538 | 44 | 82 | 3.0 | 0.0 | 0.00 | 0.00 | 0.00 | 50 | 1010.1 |
| 20260506120035 | 44 | 86 | 3.0 | 0.0 | 0.00 | 0.00 | 0.00 | 49 | 1009.8 |
| 20260506114542 | 44 | 81 | 3.0 | 0.0 | 0.00 | 0.00 | 0.00 | 49 | 1010.0 |
| 20260506113035 | 44 | 79 | 3.0 | 0.0 | 0.00 | 0.00 | 0.00 | 48 | 1009.9 |
| 20260506111528 | 45 | 79 | 2.0 | 0.0 | 0.00 | 0.00 | 0.00 | 48 | 1010.1 |
| 20260506110029 | 45 | 82 | 2.0 | 0.0 | 0.00 | 0.00 | 0.00 | 46 | 1010.0 |
| 20260506104527 | 45 | 82 | 3.0 | 0.0 | 0.00 | 0.00 | 0.00 | 47 | 1009.9 |
| 20260506103028 | 45 | 81 | 2.0 | 0.0 | 0.00 | 0.00 | 0.00 | 48 | 1009.8 |
| 20260506101524 | 45 | 82 | 2.0 | 0.0 | 0.00 | 0.00 | 0.00 | 47 | 1009.8 |
| 20260506100031 | 45 | 80 | 2.0 | 0.0 | 0.00 | 0.00 | 0.00 | 46 | 1009.8 |
| 20260506094521 | 46 | 79 | 2.0 | 0.0 | 0.00 | 0.00 | 0.00 | 45 | 1009.7 |
| 20260506093018 | 46 | 81 | 2.0 | 0.0 | 0.00 | 0.00 | 0.00 | 45 | 1009.8 |
| 20260506091516 | 47 | 81 | 2.0 | 0.0 | 0.00 | 0.00 | 0.00 | 43 | 1009.8 |
| 20260506090013 | 47 | 84 | 2.0 | 0.0 | 0.00 | 0.00 | 0.00 | 42 | 1009.8 |
| 20260506084511 | 48 | 77 | 2.0 | 0.0 | 0.00 | 0.00 | 0.00 | 40 | 1009.8 |
| 20260506083011 | 48 | 77 | 1.0 | 0.0 | 0.00 | 0.00 | 0.00 | 40 | 1009.8 |
| 20260506081513 | 49 | 77 | 2.0 | 0.0 | 0.00 | 0.00 | 0.00 | 39 | 1009.8 |
| 20260506073002 | 49 | 137 | 0.0 | 0.0 | 0.00 | 0.00 | 0.00 | 39 | 1009.8 |
| 20260506071559 | 49 | 136 | 0.0 | 0.0 | 0.00 | 0.00 | 0.00 | 38 | 1009.5 |
| 20260506070123 | 50 | 136 | 1.0 | 0.0 | 0.00 | 0.00 | 0.00 | 37 | 1009.7 |
| 20260506061555 | 51 | 136 | 0.0 | 0.0 | 0.00 | 0.00 | 0.00 | 35 | 1009.1 |
| 20260506044556 | 56 | 150 | 2.0 | 0.0 | 0.00 | 0.00 | 0.00 | 30 | 1008.3 |
| 20260506043056 | 57 | 141 | 3.0 | 0.0 | 0.00 | 0.00 | 0.00 | 29 | 1007.9 |
| 20260506041556 | 58 | 129 | 5.0 | 0.0 | 0.00 | 0.00 | 0.00 | 28 | 1007.8 |
| 20260506040051 | 58 | 151 | 3.0 | 0.0 | 0.00 | 0.00 | 0.00 | 28 | 1007.6 |
| 20260506034557 | 59 | 152 | 2.0 | 0.0 | 0.00 | 0.00 | 0.00 | 28 | 1007.5 |
| 20260506033051 | 60 | 137 | 1.0 | 0.0 | 0.00 | 0.00 | 0.00 | 27 | 1007.1 |
| 20260506031550 | 61 | 146 | 2.0 | 0.0 | 0.00 | 0.00 | 0.00 | 26 | 1006.7 |
| 20260506030050 | 61 | 158 | 1.0 | 0.0 | 0.00 | 0.00 | 0.00 | 27 | 1006.9 |
| 20260506024558 | 63 | 161 | 1.0 | 0.0 | 0.00 | 0.00 | 0.00 | 26 | 1006.4 |
| 20260506023052 | 64 | 172 | 0.0 | 0.0 | 0.00 | 0.00 | 0.00 | 24 | 1006.1 |
| 20260506021549 | 66 | 172 | 1.0 | 0.0 | 0.00 | 0.00 | 0.00 | 23 | 1006.1 |
| 20260506020105 | 67 | 172 | 2.0 | 0.0 | 0.00 | 0.00 | 0.00 | 21 | 1006.3 |
| 20260506014601 | 67 | 155 | 4.0 | 0.0 | 0.00 | 0.00 | 0.00 | 20 | 1006.3 |
| 20260506013048 | 68 | 191 | 3.0 | 0.0 | 0.00 | 0.00 | 0.00 | 22 | 1006.1 |
| 20260506011610 | 69 | 148 | 1.0 | 0.0 | 0.00 | 0.00 | 0.00 | 20 | 1006.0 |
| 20260506010048 | 69 | 148 | 3.0 | 0.0 | 0.00 | 0.00 | 0.00 | 19 | 1006.3 |
| 20260506004600 | 69 | 171 | 3.0 | 0.0 | 0.00 | 0.00 | 0.00 | 19 | 1006.3 |
| 20260506003045 | 69 | 188 | 2.0 | 0.0 | 0.00 | 0.00 | 0.00 | 21 | 1006.2 |
| 20260506001545 | 69 | 136 | 3.0 | 0.0 | 0.00 | 0.00 | 0.00 | 21 | 1006.3 |
| 20260506000110 | 69 | 172 | 2.0 | 0.0 | 0.00 | 0.00 | 0.00 | 19 | 1006.6 |
| 20260505234547 | 69 | 113 | 2.0 | 0.0 | 0.00 | 0.00 | 0.00 | 22 | 1006.7 |
| 20260505233041 | 69 | 312 | 2.0 | 0.0 | 0.00 | 0.00 | 0.00 | 19 | 1006.8 |
| 20260505231539 | 68 | 178 | 3.0 | 0.0 | 0.00 | 0.00 | 0.00 | 21 | 1007.2 |
| 20260505230058 | 68 | 189 | 3.0 | 0.0 | 0.00 | 0.00 | 0.00 | 21 | 1007.2 |
| 20260505224541 | 68 | 165 | 4.0 | 0.0 | 0.00 | 0.00 | 0.00 | 22 | 1007.5 |
| 20260505223039 | 68 | 337 | 4.0 | 0.0 | 0.00 | 0.00 | 0.00 | 24 | 1007.9 |
| 20260505221536 | 68 | 283 | 4.0 | 0.0 | 0.00 | 0.00 | 0.00 | 23 | 1007.8 |
| 20260505220039 | 67 | 241 | 4.0 | 0.0 | 0.00 | 0.00 | 0.00 | 20 | 1007.9 |
| 20260505214533 | 67 | 229 | 3.0 | 0.0 | 0.00 | 0.00 | 0.00 | 23 | 1008.3 |
| 20260505213033 | 66 | 291 | 2.0 | 0.0 | 0.00 | 0.00 | 0.00 | 21 | 1008.6 |
| 20260505211536 | 66 | 339 | 4.0 | 0.0 | 0.00 | 0.00 | 0.00 | 22 | 1008.8 |
| 20260505210031 | 66 | 301 | 4.0 | 0.0 | 0.00 | 0.00 | 0.00 | 28 | 1008.6 |
| 20260505204536 | 66 | 283 | 5.0 | 0.0 | 0.00 | 0.00 | 0.00 | 22 | 1009.0 |
| 20260505203021 | 65 | 288 | 4.0 | 0.0 | 0.00 | 0.00 | 0.00 | 22 | 1009.0 |
| 20260505201516 | 64 | 49 | 2.0 | 0.0 | 0.00 | 0.00 | 0.00 | 22 | 1009.3 |
| 20260505200014 | 64 | 263 | 2.0 | 0.0 | 0.00 | 0.00 | 0.00 | 24 | 1009.2 |
| 20260505194515 | 64 | 270 | 3.0 | 0.0 | 0.00 | 0.00 | 0.00 | 24 | 1009.4 |
| 20260505193015 | 63 | 275 | 3.0 | 0.0 | 0.00 | 0.00 | 0.00 | 27 | 1009.5 |
| 20260505191507 | 63 | 184 | 3.0 | 0.0 | 0.00 | 0.00 | 0.00 | 24 | 1009.7 |
| 20260505190002 | 63 | 179 | 3.0 | 0.0 | 0.00 | 0.00 | 0.00 | 26 | 1009.4 |